エカテリンブルク の空港の天気 - METARとTAF

コルツォヴォ空港 ( USSS / SVX ) - ロシア エカテリンブルク
飛行場実況気象(Metar)
観測時間06/18 04:30 YEKT (06/17 23:30 UTC)
風向・風速北北西 5m/s
視程10km以上
天気現象
少しの雲 雲底高度 370m
全天の4割程度の雲 雲底高度 850m
気温9℃
湿度93%
気圧1004hPa
METARUSSS 172330Z 33005MPS 9999 FEW012 SCT028 09/08 Q1004 R26R/290335 NOSIG RMK QFE732/0976
過去の天気等 Google飛行場航空写真 Wunderground天気予報

過去48時間のMETAR

飛行場予報(TAF)
発表時間: 6/18 03:51 YEKT (6/17 22:51 UTC)
予報対象時間: 18日5時 YEKT ~ 19日5時 YEKT
風向・風速北西 3m/s 瞬間風速 13m/s
視程10km以上
全天の8割程度の雲 雲底高度 340m
全天の4割程度の積乱雲 雲底高度 610m
18日5時 YEKT ~ 18日15時 YEKT に一時的に
視程3100m
天気現象弱いしゅう雨
TAF USSS 172251Z 1800/1824 31003G13MPS 9999 BKN011 SCT020CB
TEMPO 1800/1810 3100 -SHRA